sensor_id;sensor_type;location;lat;lon;timestamp;P1;durP1;ratioP1;P2;durP2;ratioP2
44145;SDS011;29809;52.432;4.780;2023-11-21T00:00:17;3.50;;;1.88;;
44145;SDS011;29809;52.432;4.780;2023-11-21T00:02:43;3.33;;;1.55;;
44145;SDS011;29809;52.432;4.780;2023-11-21T00:05:09;2.53;;;1.98;;
44145;SDS011;29809;52.432;4.780;2023-11-21T00:07:35;2.22;;;1.83;;
44145;SDS011;29809;52.432;4.780;2023-11-21T00:10:00;2.92;;;1.50;;
44145;SDS011;29809;52.432;4.780;2023-11-21T00:12:26;2.72;;;1.63;;
44145;SDS011;29809;52.432;4.780;2023-11-21T00:14:51;3.83;;;1.77;;
44145;SDS011;29809;52.432;4.780;2023-11-21T00:17:16;2.22;;;1.60;;
44145;SDS011;29809;52.432;4.780;2023-11-21T00:19:41;2.92;;;1.35;;
44145;SDS011;29809;52.432;4.780;2023-11-21T00:22:08;3.78;;;2.00;;
44145;SDS011;29809;52.432;4.780;2023-11-21T00:24:34;2.25;;;1.58;;
44145;SDS011;29809;52.432;4.780;2023-11-21T00:26:59;1.75;;;1.20;;
44145;SDS011;29809;52.432;4.780;2023-11-21T00:29:24;2.22;;;1.38;;
44145;SDS011;29809;52.432;4.780;2023-11-21T00:31:49;2.13;;;1.35;;
44145;SDS011;29809;52.432;4.780;2023-11-21T00:34:15;1.65;;;1.30;;
44145;SDS011;29809;52.432;4.780;2023-11-21T00:36:40;2.63;;;1.63;;
44145;SDS011;29809;52.432;4.780;2023-11-21T00:39:05;2.20;;;1.63;;
44145;SDS011;29809;52.432;4.780;2023-11-21T00:41:31;2.03;;;1.55;;
44145;SDS011;29809;52.432;4.780;2023-11-21T00:43:56;3.33;;;1.55;;
44145;SDS011;29809;52.432;4.780;2023-11-21T00:46:21;1.95;;;1.70;;
44145;SDS011;29809;52.432;4.780;2023-11-21T00:48:49;2.85;;;1.83;;
44145;SDS011;29809;52.432;4.780;2023-11-21T00:51:14;2.67;;;1.85;;
44145;SDS011;29809;52.432;4.780;2023-11-21T00:53:39;2.50;;;1.60;;
44145;SDS011;29809;52.432;4.780;2023-11-21T00:56:05;3.03;;;1.73;;
44145;SDS011;29809;52.432;4.780;2023-11-21T00:58:30;2.30;;;1.58;;
44145;SDS011;29809;52.432;4.780;2023-11-21T01:00:55;1.20;;;1.10;;
44145;SDS011;29809;52.432;4.780;2023-11-21T01:03:21;2.90;;;1.73;;
44145;SDS011;29809;52.432;4.780;2023-11-21T01:05:46;3.15;;;1.88;;
44145;SDS011;29809;52.432;4.780;2023-11-21T01:08:11;6.97;;;1.85;;
44145;SDS011;29809;52.432;4.780;2023-11-21T01:10:37;2.25;;;1.50;;
44145;SDS011;29809;52.432;4.780;2023-11-21T01:13:02;1.65;;;1.55;;
44145;SDS011;29809;52.432;4.780;2023-11-21T01:15:31;2.35;;;1.30;;
44145;SDS011;29809;52.432;4.780;2023-11-21T01:17:56;2.45;;;1.42;;
44145;SDS011;29809;52.432;4.780;2023-11-21T01:20:21;3.05;;;1.27;;
44145;SDS011;29809;52.432;4.780;2023-11-21T01:22:46;2.55;;;1.50;;
44145;SDS011;29809;52.432;4.780;2023-11-21T01:25:14;3.42;;;1.75;;
44145;SDS011;29809;52.432;4.780;2023-11-21T01:27:39;2.42;;;1.48;;
44145;SDS011;29809;52.432;4.780;2023-11-21T01:30:05;2.30;;;1.58;;
44145;SDS011;29809;52.432;4.780;2023-11-21T01:32:32;2.72;;;1.35;;
44145;SDS011;29809;52.432;4.780;2023-11-21T01:34:57;2.25;;;1.45;;
44145;SDS011;29809;52.432;4.780;2023-11-21T01:37:22;2.95;;;1.33;;
44145;SDS011;29809;52.432;4.780;2023-11-21T01:39:48;1.90;;;1.30;;
44145;SDS011;29809;52.432;4.780;2023-11-21T01:42:13;3.67;;;1.73;;
44145;SDS011;29809;52.432;4.780;2023-11-21T01:44:39;2.40;;;1.42;;
44145;SDS011;29809;52.432;4.780;2023-11-21T01:47:07;1.48;;;1.35;;
44145;SDS011;29809;52.432;4.780;2023-11-21T01:49:33;2.97;;;1.50;;
44145;SDS011;29809;52.432;4.780;2023-11-21T01:51:58;2.58;;;1.35;;
44145;SDS011;29809;52.432;4.780;2023-11-21T01:54:24;2.75;;;1.40;;
44145;SDS011;29809;52.432;4.780;2023-11-21T01:56:50;2.38;;;1.45;;
44145;SDS011;29809;52.432;4.780;2023-11-21T01:59:17;1.30;;;1.20;;
44145;SDS011;29809;52.432;4.780;2023-11-21T02:01:43;2.20;;;1.35;;
44145;SDS011;29809;52.432;4.780;2023-11-21T02:04:08;1.95;;;0.95;;
44145;SDS011;29809;52.432;4.780;2023-11-21T02:06:34;4.05;;;1.70;;
44145;SDS011;29809;52.432;4.780;2023-11-21T02:09:00;2.72;;;1.30;;
44145;SDS011;29809;52.432;4.780;2023-11-21T02:11:25;4.05;;;1.35;;
44145;SDS011;29809;52.432;4.780;2023-11-21T02:13:52;2.00;;;1.40;;
44145;SDS011;29809;52.432;4.780;2023-11-21T02:16:19;2.50;;;1.58;;
44145;SDS011;29809;52.432;4.780;2023-11-21T02:18:45;1.55;;;1.40;;
44145;SDS011;29809;52.432;4.780;2023-11-21T02:21:12;1.33;;;0.93;;
44145;SDS011;29809;52.432;4.780;2023-11-21T02:23:37;2.17;;;1.15;;
44145;SDS011;29809;52.432;4.780;2023-11-21T02:26:07;2.00;;;1.13;;
44145;SDS011;29809;52.432;4.780;2023-11-21T02:28:32;2.72;;;1.70;;
44145;SDS011;29809;52.432;4.780;2023-11-21T02:30:58;2.88;;;1.25;;
44145;SDS011;29809;52.432;4.780;2023-11-21T02:33:24;1.73;;;1.17;;
44145;SDS011;29809;52.432;4.780;2023-11-21T02:35:49;2.38;;;1.10;;
44145;SDS011;29809;52.432;4.780;2023-11-21T02:38:14;2.17;;;1.55;;
44145;SDS011;29809;52.432;4.780;2023-11-21T02:40:40;1.92;;;1.10;;
44145;SDS011;29809;52.432;4.780;2023-11-21T02:43:06;1.48;;;1.38;;
44145;SDS011;29809;52.432;4.780;2023-11-21T02:45:31;3.67;;;1.40;;
44145;SDS011;29809;52.432;4.780;2023-11-21T02:47:57;1.40;;;1.10;;
44145;SDS011;29809;52.432;4.780;2023-11-21T02:50:22;1.77;;;1.25;;
44145;SDS011;29809;52.432;4.780;2023-11-21T02:52:47;2.88;;;1.70;;
44145;SDS011;29809;52.432;4.780;2023-11-21T02:55:13;1.50;;;1.10;;
44145;SDS011;29809;52.432;4.780;2023-11-21T02:57:38;1.55;;;1.20;;
44145;SDS011;29809;52.432;4.780;2023-11-21T03:00:03;2.78;;;1.40;;
44145;SDS011;29809;52.432;4.780;2023-11-21T03:02:32;1.80;;;1.10;;
44145;SDS011;29809;52.432;4.780;2023-11-21T03:04:57;2.00;;;1.00;;
44145;SDS011;29809;52.432;4.780;2023-11-21T03:07:22;1.30;;;1.20;;
44145;SDS011;29809;52.432;4.780;2023-11-21T03:09:48;1.65;;;1.20;;
44145;SDS011;29809;52.432;4.780;2023-11-21T03:12:13;1.65;;;1.15;;
44145;SDS011;29809;52.432;4.780;2023-11-21T03:14:41;1.33;;;0.95;;
44145;SDS011;29809;52.432;4.780;2023-11-21T03:17:06;1.33;;;1.10;;
44145;SDS011;29809;52.432;4.780;2023-11-21T03:19:32;1.38;;;1.23;;
44145;SDS011;29809;52.432;4.780;2023-11-21T03:21:57;1.20;;;1.10;;
44145;SDS011;29809;52.432;4.780;2023-11-21T03:24:22;2.17;;;1.23;;
44145;SDS011;29809;52.432;4.780;2023-11-21T03:26:48;1.60;;;1.25;;
44145;SDS011;29809;52.432;4.780;2023-11-21T03:29:13;1.83;;;1.13;;
44145;SDS011;29809;52.432;4.780;2023-11-21T03:31:40;1.50;;;1.10;;
44145;SDS011;29809;52.432;4.780;2023-11-21T03:34:05;1.40;;;1.17;;
44145;SDS011;29809;52.432;4.780;2023-11-21T03:36:31;1.63;;;1.25;;
44145;SDS011;29809;52.432;4.780;2023-11-21T03:38:56;1.20;;;1.10;;
44145;SDS011;29809;52.432;4.780;2023-11-21T03:41:21;2.90;;;1.05;;
44145;SDS011;29809;52.432;4.780;2023-11-21T03:43:47;1.65;;;1.08;;
44145;SDS011;29809;52.432;4.780;2023-11-21T03:46:12;2.88;;;0.95;;
44145;SDS011;29809;52.432;4.780;2023-11-21T03:48:37;1.02;;;0.95;;
44145;SDS011;29809;52.432;4.780;2023-11-21T03:51:03;1.23;;;1.10;;
44145;SDS011;29809;52.432;4.780;2023-11-21T03:53:28;1.88;;;1.10;;
44145;SDS011;29809;52.432;4.780;2023-11-21T03:55:53;0.90;;;0.90;;
44145;SDS011;29809;52.432;4.780;2023-11-21T03:58:19;1.20;;;1.10;;
44145;SDS011;29809;52.432;4.780;2023-11-21T04:00:44;1.42;;;0.80;;
44145;SDS011;29809;52.432;4.780;2023-11-21T04:03:09;1.65;;;1.10;;
44145;SDS011;29809;52.432;4.780;2023-11-21T04:05:34;0.85;;;0.80;;
44145;SDS011;29809;52.432;4.780;2023-11-21T04:08:00;2.53;;;0.93;;
44145;SDS011;29809;52.432;4.780;2023-11-21T04:10:25;1.85;;;1.05;;
44145;SDS011;29809;52.432;4.780;2023-11-21T04:12:50;1.10;;;1.00;;
44145;SDS011;29809;52.432;4.780;2023-11-21T04:15:15;1.85;;;1.20;;
44145;SDS011;29809;52.432;4.780;2023-11-21T04:17:41;1.67;;;1.10;;
44145;SDS011;29809;52.432;4.780;2023-11-21T04:20:07;1.20;;;1.05;;
44145;SDS011;29809;52.432;4.780;2023-11-21T04:22:38;1.25;;;0.88;;
44145;SDS011;29809;52.432;4.780;2023-11-21T04:25:05;2.22;;;1.20;;
44145;SDS011;29809;52.432;4.780;2023-11-21T04:27:31;0.93;;;0.88;;
44145;SDS011;29809;52.432;4.780;2023-11-21T04:29:57;0.80;;;0.80;;
44145;SDS011;29809;52.432;4.780;2023-11-21T04:32:22;1.67;;;0.90;;
44145;SDS011;29809;52.432;4.780;2023-11-21T04:34:47;1.77;;;0.88;;
44145;SDS011;29809;52.432;4.780;2023-11-21T04:37:12;0.93;;;0.90;;
44145;SDS011;29809;52.432;4.780;2023-11-21T04:39:38;0.80;;;0.80;;
44145;SDS011;29809;52.432;4.780;2023-11-21T04:42:03;0.98;;;0.70;;
44145;SDS011;29809;52.432;4.780;2023-11-21T04:44:28;1.00;;;0.77;;
44145;SDS011;29809;52.432;4.780;2023-11-21T04:46:54;1.42;;;0.98;;
44145;SDS011;29809;52.432;4.780;2023-11-21T04:49:19;1.02;;;0.90;;
44145;SDS011;29809;52.432;4.780;2023-11-21T04:51:44;0.70;;;0.70;;
44145;SDS011;29809;52.432;4.780;2023-11-21T04:54:09;1.17;;;1.08;;
44145;SDS011;29809;52.432;4.780;2023-11-21T04:56:35;0.68;;;0.68;;
44145;SDS011;29809;52.432;4.780;2023-11-21T04:59:00;0.70;;;0.70;;
44145;SDS011;29809;52.432;4.780;2023-11-21T05:01:25;0.60;;;0.60;;
44145;SDS011;29809;52.432;4.780;2023-11-21T05:03:51;0.70;;;0.70;;
44145;SDS011;29809;52.432;4.780;2023-11-21T05:06:17;0.70;;;0.70;;
44145;SDS011;29809;52.432;4.780;2023-11-21T05:08:42;1.10;;;1.00;;
44145;SDS011;29809;52.432;4.780;2023-11-21T05:11:08;0.93;;;0.93;;
44145;SDS011;29809;52.432;4.780;2023-11-21T05:13:35;0.73;;;0.73;;
44145;SDS011;29809;52.432;4.780;2023-11-21T05:16:00;1.25;;;0.80;;
44145;SDS011;29809;52.432;4.780;2023-11-21T05:18:29;0.70;;;0.70;;
44145;SDS011;29809;52.432;4.780;2023-11-21T05:20:54;0.70;;;0.70;;
44145;SDS011;29809;52.432;4.780;2023-11-21T05:23:20;0.88;;;0.88;;
44145;SDS011;29809;52.432;4.780;2023-11-21T05:25:45;1.70;;;0.60;;
44145;SDS011;29809;52.432;4.780;2023-11-21T05:28:11;0.75;;;0.68;;
44145;SDS011;29809;52.432;4.780;2023-11-21T05:30:36;0.70;;;0.60;;
44145;SDS011;29809;52.432;4.780;2023-11-21T05:33:03;2.35;;;0.90;;
44145;SDS011;29809;52.432;4.780;2023-11-21T05:35:28;0.65;;;0.60;;
44145;SDS011;29809;52.432;4.780;2023-11-21T05:37:54;1.08;;;0.98;;
44145;SDS011;29809;52.432;4.780;2023-11-21T05:40:19;0.57;;;0.57;;
44145;SDS011;29809;52.432;4.780;2023-11-21T05:42:47;0.55;;;0.55;;
44145;SDS011;29809;52.432;4.780;2023-11-21T05:45:13;0.60;;;0.60;;
44145;SDS011;29809;52.432;4.780;2023-11-21T05:47:39;2.17;;;0.60;;
44145;SDS011;29809;52.432;4.780;2023-11-21T05:50:05;4.15;;;0.80;;
44145;SDS011;29809;52.432;4.780;2023-11-21T05:52:31;2.40;;;0.75;;
44145;SDS011;29809;52.432;4.780;2023-11-21T05:54:57;4.07;;;0.70;;
44145;SDS011;29809;52.432;4.780;2023-11-21T05:57:23;0.70;;;0.70;;
44145;SDS011;29809;52.432;4.780;2023-11-21T05:59:48;0.88;;;0.70;;
44145;SDS011;29809;52.432;4.780;2023-11-21T06:02:13;2.17;;;0.57;;
44145;SDS011;29809;52.432;4.780;2023-11-21T06:04:38;1.00;;;0.70;;
44145;SDS011;29809;52.432;4.780;2023-11-21T06:07:03;1.00;;;0.80;;
44145;SDS011;29809;52.432;4.780;2023-11-21T06:09:29;2.47;;;0.75;;
44145;SDS011;29809;52.432;4.780;2023-11-21T06:11:54;3.42;;;0.65;;
44145;SDS011;29809;52.432;4.780;2023-11-21T06:14:19;37.33;;;10.20;;
44145;SDS011;29809;52.432;4.780;2023-11-21T06:16:47;42.25;;;13.02;;
44145;SDS011;29809;52.432;4.780;2023-11-21T06:19:12;48.42;;;11.23;;
44145;SDS011;29809;52.432;4.780;2023-11-21T06:21:37;46.80;;;11.70;;
44145;SDS011;29809;52.432;4.780;2023-11-21T06:24:03;37.30;;;10.63;;
44145;SDS011;29809;52.432;4.780;2023-11-21T06:26:29;32.13;;;9.50;;
44145;SDS011;29809;52.432;4.780;2023-11-21T06:28:54;36.17;;;9.82;;
44145;SDS011;29809;52.432;4.780;2023-11-21T06:31:20;32.42;;;9.27;;
44145;SDS011;29809;52.432;4.780;2023-11-21T06:33:46;23.52;;;8.18;;
44145;SDS011;29809;52.432;4.780;2023-11-21T06:36:12;21.25;;;8.02;;
44145;SDS011;29809;52.432;4.780;2023-11-21T06:38:37;33.75;;;9.15;;
44145;SDS011;29809;52.432;4.780;2023-11-21T06:41:02;23.15;;;7.90;;
44145;SDS011;29809;52.432;4.780;2023-11-21T06:43:29;22.42;;;6.78;;
44145;SDS011;29809;52.432;4.780;2023-11-21T06:45:56;15.25;;;5.28;;
44145;SDS011;29809;52.432;4.780;2023-11-21T06:48:21;18.77;;;6.03;;
44145;SDS011;29809;52.432;4.780;2023-11-21T06:50:46;18.58;;;5.80;;
44145;SDS011;29809;52.432;4.780;2023-11-21T06:53:12;13.32;;;4.70;;
44145;SDS011;29809;52.432;4.780;2023-11-21T06:55:38;15.75;;;4.88;;
44145;SDS011;29809;52.432;4.780;2023-11-21T06:58:03;15.40;;;5.57;;
44145;SDS011;29809;52.432;4.780;2023-11-21T07:00:30;15.90;;;5.28;;
44145;SDS011;29809;52.432;4.780;2023-11-21T07:02:55;14.32;;;5.10;;
44145;SDS011;29809;52.432;4.780;2023-11-21T07:05:20;9.88;;;4.63;;
44145;SDS011;29809;52.432;4.780;2023-11-21T07:07:46;13.45;;;4.88;;
44145;SDS011;29809;52.432;4.780;2023-11-21T07:10:12;11.68;;;4.45;;
44145;SDS011;29809;52.432;4.780;2023-11-21T07:12:37;18.23;;;4.45;;
44145;SDS011;29809;52.432;4.780;2023-11-21T07:15:03;10.75;;;4.88;;
44145;SDS011;29809;52.432;4.780;2023-11-21T07:17:30;8.90;;;4.50;;
44145;SDS011;29809;52.432;4.780;2023-11-21T07:19:56;7.22;;;3.58;;
44145;SDS011;29809;52.432;4.780;2023-11-21T07:22:21;7.50;;;4.32;;
44145;SDS011;29809;52.432;4.780;2023-11-21T07:24:49;7.75;;;3.58;;
44145;SDS011;29809;52.432;4.780;2023-11-21T07:27:18;7.35;;;3.95;;
44145;SDS011;29809;52.432;4.780;2023-11-21T07:29:43;7.20;;;3.47;;
44145;SDS011;29809;52.432;4.780;2023-11-21T07:32:08;8.45;;;3.05;;
44145;SDS011;29809;52.432;4.780;2023-11-21T07:34:38;6.57;;;3.33;;
44145;SDS011;29809;52.432;4.780;2023-11-21T07:37:03;6.80;;;3.05;;
44145;SDS011;29809;52.432;4.780;2023-11-21T07:39:28;4.43;;;2.63;;
44145;SDS011;29809;52.432;4.780;2023-11-21T07:41:54;5.82;;;3.10;;
44145;SDS011;29809;52.432;4.780;2023-11-21T07:44:20;6.45;;;2.85;;
44145;SDS011;29809;52.432;4.780;2023-11-21T07:46:45;5.32;;;3.30;;
44145;SDS011;29809;52.432;4.780;2023-11-21T07:49:11;6.35;;;2.90;;
44145;SDS011;29809;52.432;4.780;2023-11-21T07:51:36;7.22;;;3.20;;
44145;SDS011;29809;52.432;4.780;2023-11-21T07:54:01;4.60;;;2.60;;
44145;SDS011;29809;52.432;4.780;2023-11-21T07:56:27;6.13;;;2.10;;
44145;SDS011;29809;52.432;4.780;2023-11-21T07:58:52;5.57;;;2.80;;
44145;SDS011;29809;52.432;4.780;2023-11-21T08:01:17;4.63;;;2.55;;
44145;SDS011;29809;52.432;4.780;2023-11-21T08:03:42;6.13;;;3.22;;
44145;SDS011;29809;52.432;4.780;2023-11-21T08:06:09;5.30;;;2.60;;
44145;SDS011;29809;52.432;4.780;2023-11-21T08:08:34;4.90;;;2.50;;
44145;SDS011;29809;52.432;4.780;2023-11-21T08:10:59;5.35;;;2.58;;
44145;SDS011;29809;52.432;4.780;2023-11-21T08:13:26;3.28;;;2.30;;
44145;SDS011;29809;52.432;4.780;2023-11-21T08:15:55;4.07;;;2.20;;
44145;SDS011;29809;52.432;4.780;2023-11-21T08:18:21;3.72;;;2.10;;
44145;SDS011;29809;52.432;4.780;2023-11-21T08:20:46;4.25;;;2.70;;
44145;SDS011;29809;52.432;4.780;2023-11-21T08:23:15;3.38;;;1.95;;
44145;SDS011;29809;52.432;4.780;2023-11-21T08:25:42;3.20;;;1.95;;
44145;SDS011;29809;52.432;4.780;2023-11-21T08:28:07;3.85;;;1.90;;
44145;SDS011;29809;52.432;4.780;2023-11-21T08:30:32;3.17;;;2.05;;
44145;SDS011;29809;52.432;4.780;2023-11-21T08:32:57;3.70;;;1.83;;
44145;SDS011;29809;52.432;4.780;2023-11-21T08:35:23;3.78;;;2.53;;
44145;SDS011;29809;52.432;4.780;2023-11-21T08:37:50;4.38;;;1.90;;
44145;SDS011;29809;52.432;4.780;2023-11-21T08:40:16;2.92;;;1.80;;
44145;SDS011;29809;52.432;4.780;2023-11-21T08:42:42;2.40;;;1.98;;
44145;SDS011;29809;52.432;4.780;2023-11-21T08:45:07;2.92;;;1.80;;
44145;SDS011;29809;52.432;4.780;2023-11-21T08:47:34;2.83;;;2.00;;
44145;SDS011;29809;52.432;4.780;2023-11-21T08:49:59;2.80;;;2.00;;
44145;SDS011;29809;52.432;4.780;2023-11-21T08:52:24;2.58;;;1.50;;
44145;SDS011;29809;52.432;4.780;2023-11-21T08:54:50;2.83;;;1.83;;
44145;SDS011;29809;52.432;4.780;2023-11-21T08:57:24;1.77;;;1.60;;
44145;SDS011;29809;52.432;4.780;2023-11-21T08:59:49;3.08;;;2.05;;
44145;SDS011;29809;52.432;4.780;2023-11-21T09:02:20;3.53;;;1.80;;
44145;SDS011;29809;52.432;4.780;2023-11-21T09:04:45;3.65;;;2.08;;
44145;SDS011;29809;52.432;4.780;2023-11-21T09:07:10;2.00;;;1.73;;
44145;SDS011;29809;52.432;4.780;2023-11-21T09:09:36;3.47;;;1.83;;
44145;SDS011;29809;52.432;4.780;2023-11-21T09:12:01;3.28;;;2.03;;
44145;SDS011;29809;52.432;4.780;2023-11-21T09:14:26;2.13;;;1.90;;
44145;SDS011;29809;52.432;4.780;2023-11-21T09:16:52;2.22;;;1.50;;
44145;SDS011;29809;52.432;4.780;2023-11-21T09:19:17;2.35;;;1.83;;
44145;SDS011;29809;52.432;4.780;2023-11-21T09:21:42;1.77;;;1.40;;
44145;SDS011;29809;52.432;4.780;2023-11-21T09:24:07;3.70;;;1.77;;
44145;SDS011;29809;52.432;4.780;2023-11-21T09:26:34;1.60;;;1.45;;
44145;SDS011;29809;52.432;4.780;2023-11-21T09:28:59;2.38;;;1.73;;
44145;SDS011;29809;52.432;4.780;2023-11-21T09:31:24;2.60;;;1.85;;
44145;SDS011;29809;52.432;4.780;2023-11-21T09:33:50;3.70;;;2.25;;
44145;SDS011;29809;52.432;4.780;2023-11-21T09:36:15;2.95;;;1.90;;
44145;SDS011;29809;52.432;4.780;2023-11-21T09:38:40;3.08;;;2.35;;
44145;SDS011;29809;52.432;4.780;2023-11-21T09:41:07;2.55;;;2.30;;
44145;SDS011;29809;52.432;4.780;2023-11-21T09:43:37;2.40;;;2.20;;
44145;SDS011;29809;52.432;4.780;2023-11-21T09:46:03;2.50;;;2.10;;
44145;SDS011;29809;52.432;4.780;2023-11-21T09:48:30;3.17;;;2.33;;
44145;SDS011;29809;52.432;4.780;2023-11-21T09:50:57;2.78;;;1.98;;
44145;SDS011;29809;52.432;4.780;2023-11-21T09:53:23;2.70;;;2.20;;
44145;SDS011;29809;52.432;4.780;2023-11-21T09:55:52;2.65;;;2.45;;
44145;SDS011;29809;52.432;4.780;2023-11-21T09:58:18;2.65;;;2.38;;
44145;SDS011;29809;52.432;4.780;2023-11-21T10:00:47;3.22;;;2.33;;
44145;SDS011;29809;52.432;4.780;2023-11-21T10:03:12;2.67;;;2.47;;
44145;SDS011;29809;52.432;4.780;2023-11-21T10:05:38;2.53;;;2.30;;
44145;SDS011;29809;52.432;4.780;2023-11-21T10:08:07;2.65;;;2.45;;
44145;SDS011;29809;52.432;4.780;2023-11-21T10:10:33;2.28;;;2.00;;
44145;SDS011;29809;52.432;4.780;2023-11-21T10:13:00;4.00;;;2.45;;
44145;SDS011;29809;52.432;4.780;2023-11-21T10:15:27;2.25;;;2.05;;
44145;SDS011;29809;52.432;4.780;2023-11-21T10:17:55;2.53;;;2.28;;
44145;SDS011;29809;52.432;4.780;2023-11-21T10:20:20;2.35;;;2.15;;
44145;SDS011;29809;52.432;4.780;2023-11-21T10:22:46;3.17;;;2.67;;
44145;SDS011;29809;52.432;4.780;2023-11-21T10:25:11;2.70;;;2.33;;
44145;SDS011;29809;52.432;4.780;2023-11-21T10:27:39;3.05;;;2.78;;
44145;SDS011;29809;52.432;4.780;2023-11-21T10:30:07;3.72;;;2.55;;
44145;SDS011;29809;52.432;4.780;2023-11-21T10:32:36;3.08;;;2.60;;
44145;SDS011;29809;52.432;4.780;2023-11-21T10:35:02;3.25;;;2.63;;
44145;SDS011;29809;52.432;4.780;2023-11-21T10:37:32;2.97;;;2.45;;
44145;SDS011;29809;52.432;4.780;2023-11-21T10:39:58;3.03;;;2.72;;
44145;SDS011;29809;52.432;4.780;2023-11-21T10:42:23;2.17;;;1.92;;
44145;SDS011;29809;52.432;4.780;2023-11-21T10:44:49;3.00;;;2.70;;
44145;SDS011;29809;52.432;4.780;2023-11-21T10:47:14;6.00;;;2.95;;
44145;SDS011;29809;52.432;4.780;2023-11-21T10:49:40;3.45;;;2.65;;
44145;SDS011;29809;52.432;4.780;2023-11-21T10:52:05;3.40;;;2.40;;
44145;SDS011;29809;52.432;4.780;2023-11-21T10:54:31;2.38;;;2.17;;
44145;SDS011;29809;52.432;4.780;2023-11-21T10:56:57;3.00;;;2.20;;
44145;SDS011;29809;52.432;4.780;2023-11-21T10:59:23;2.25;;;2.05;;
44145;SDS011;29809;52.432;4.780;2023-11-21T11:01:51;2.40;;;2.20;;
44145;SDS011;29809;52.432;4.780;2023-11-21T11:04:18;2.90;;;2.40;;
44145;SDS011;29809;52.432;4.780;2023-11-21T11:06:44;3.13;;;2.30;;
44145;SDS011;29809;52.432;4.780;2023-11-21T11:09:13;2.97;;;2.67;;
44145;SDS011;29809;52.432;4.780;2023-11-21T11:11:41;2.55;;;2.35;;
44145;SDS011;29809;52.432;4.780;2023-11-21T11:14:08;2.95;;;2.35;;
44145;SDS011;29809;52.432;4.780;2023-11-21T11:16:35;2.45;;;2.25;;
44145;SDS011;29809;52.432;4.780;2023-11-21T11:19:00;2.13;;;1.92;;
44145;SDS011;29809;52.432;4.780;2023-11-21T11:21:29;2.75;;;2.50;;
44145;SDS011;29809;52.432;4.780;2023-11-21T11:26:46;3.45;;;2.40;;
44145;SDS011;29809;52.432;4.780;2023-11-21T11:29:23;2.25;;;2.13;;
44145;SDS011;29809;52.432;4.780;2023-11-21T11:34:26;2.40;;;2.00;;
44145;SDS011;29809;52.432;4.780;2023-11-21T11:36:56;2.20;;;2.00;;
44145;SDS011;29809;52.432;4.780;2023-11-21T11:39:28;4.40;;;2.60;;
44145;SDS011;29809;52.432;4.780;2023-11-21T11:41:55;2.33;;;2.13;;
44145;SDS011;29809;52.432;4.780;2023-11-21T11:47:09;2.38;;;2.17;;
44145;SDS011;29809;52.432;4.780;2023-11-21T11:49:38;2.22;;;2.03;;
44145;SDS011;29809;52.432;4.780;2023-11-21T11:54:48;2.08;;;1.88;;
44145;SDS011;29809;52.432;4.780;2023-11-21T11:57:14;2.22;;;1.75;;
44145;SDS011;29809;52.432;4.780;2023-11-21T12:02:23;3.08;;;2.00;;
44145;SDS011;29809;52.432;4.780;2023-11-21T12:04:49;2.08;;;1.70;;
44145;SDS011;29809;52.432;4.780;2023-11-21T12:07:14;3.20;;;2.40;;
44145;SDS011;29809;52.432;4.780;2023-11-21T12:09:39;1.75;;;1.65;;
44145;SDS011;29809;52.432;4.780;2023-11-21T12:12:05;2.75;;;2.25;;
44145;SDS011;29809;52.432;4.780;2023-11-21T12:14:31;2.75;;;1.95;;
44145;SDS011;29809;52.432;4.780;2023-11-21T12:16:56;2.42;;;2.05;;
44145;SDS011;29809;52.432;4.780;2023-11-21T12:19:21;2.67;;;1.80;;
44145;SDS011;29809;52.432;4.780;2023-11-21T12:21:47;2.50;;;2.10;;
44145;SDS011;29809;52.432;4.780;2023-11-21T12:24:13;2.15;;;1.63;;
44145;SDS011;29809;52.432;4.780;2023-11-21T12:26:42;3.67;;;1.98;;
44145;SDS011;29809;52.432;4.780;2023-11-21T12:29:07;2.45;;;1.83;;
44145;SDS011;29809;52.432;4.780;2023-11-21T12:31:33;2.08;;;1.67;;
44145;SDS011;29809;52.432;4.780;2023-11-21T12:34:00;1.73;;;1.63;;
44145;SDS011;29809;52.432;4.780;2023-11-21T12:36:25;3.72;;;2.13;;
44145;SDS011;29809;52.432;4.780;2023-11-21T12:38:50;2.13;;;1.73;;
44145;SDS011;29809;52.432;4.780;2023-11-21T12:41:16;1.73;;;1.63;;
44145;SDS011;29809;52.432;4.780;2023-11-21T12:43:42;1.67;;;1.58;;
44145;SDS011;29809;52.432;4.780;2023-11-21T12:46:09;2.03;;;1.83;;
44145;SDS011;29809;52.432;4.780;2023-11-21T12:48:37;2.60;;;1.67;;
44145;SDS011;29809;52.432;4.780;2023-11-21T12:51:12;2.45;;;2.25;;
44145;SDS011;29809;52.432;4.780;2023-11-21T12:53:39;2.10;;;1.90;;
44145;SDS011;29809;52.432;4.780;2023-11-21T12:56:07;1.65;;;1.55;;
44145;SDS011;29809;52.432;4.780;2023-11-21T12:58:35;1.80;;;1.70;;
44145;SDS011;29809;52.432;4.780;2023-11-21T13:01:00;2.13;;;1.92;;
44145;SDS011;29809;52.432;4.780;2023-11-21T13:03:28;1.77;;;1.50;;
44145;SDS011;29809;52.432;4.780;2023-11-21T13:05:55;2.03;;;1.85;;
44145;SDS011;29809;52.432;4.780;2023-11-21T13:08:22;2.75;;;2.17;;
44145;SDS011;29809;52.432;4.780;2023-11-21T13:10:49;2.15;;;1.90;;
44145;SDS011;29809;52.432;4.780;2023-11-21T13:13:14;2.58;;;1.75;;
44145;SDS011;29809;52.432;4.780;2023-11-21T13:15:49;2.35;;;2.15;;
44145;SDS011;29809;52.432;4.780;2023-11-21T13:18:15;2.20;;;1.80;;
44145;SDS011;29809;52.432;4.780;2023-11-21T13:20:41;2.20;;;2.00;;
44145;SDS011;29809;52.432;4.780;2023-11-21T13:23:08;2.50;;;2.10;;
44145;SDS011;29809;52.432;4.780;2023-11-21T13:25:34;2.38;;;2.17;;
44145;SDS011;29809;52.432;4.780;2023-11-21T13:27:59;2.95;;;2.13;;
44145;SDS011;29809;52.432;4.780;2023-11-21T13:30:25;1.98;;;1.77;;
44145;SDS011;29809;52.432;4.780;2023-11-21T13:32:58;2.50;;;2.05;;
44145;SDS011;29809;52.432;4.780;2023-11-21T13:35:27;2.78;;;2.30;;
44145;SDS011;29809;52.432;4.780;2023-11-21T13:38:04;2.42;;;2.22;;
44145;SDS011;29809;52.432;4.780;2023-11-21T13:40:30;2.75;;;2.40;;
44145;SDS011;29809;52.432;4.780;2023-11-21T13:42:56;3.63;;;2.10;;
44145;SDS011;29809;52.432;4.780;2023-11-21T13:45:24;2.55;;;2.35;;
44145;SDS011;29809;52.432;4.780;2023-11-21T13:47:51;2.78;;;2.33;;
44145;SDS011;29809;52.432;4.780;2023-11-21T13:50:19;2.17;;;1.98;;
44145;SDS011;29809;52.432;4.780;2023-11-21T13:52:49;2.42;;;2.03;;
44145;SDS011;29809;52.432;4.780;2023-11-21T13:55:17;2.65;;;2.00;;
44145;SDS011;29809;52.432;4.780;2023-11-21T13:57:42;2.10;;;1.90;;
44145;SDS011;29809;52.432;4.780;2023-11-21T14:00:10;2.33;;;2.13;;
44145;SDS011;29809;52.432;4.780;2023-11-21T14:02:56;2.60;;;2.08;;
44145;SDS011;29809;52.432;4.780;2023-11-21T14:05:25;2.40;;;2.20;;
44145;SDS011;29809;52.432;4.780;2023-11-21T14:07:54;2.30;;;2.10;;
44145;SDS011;29809;52.432;4.780;2023-11-21T14:10:20;2.53;;;2.15;;
44145;SDS011;29809;52.432;4.780;2023-11-21T14:12:49;2.53;;;1.80;;
44145;SDS011;29809;52.432;4.780;2023-11-21T14:15:14;2.67;;;2.05;;
44145;SDS011;29809;52.432;4.780;2023-11-21T14:17:44;2.30;;;2.10;;
44145;SDS011;29809;52.432;4.780;2023-11-21T14:20:09;2.42;;;1.80;;
44145;SDS011;29809;52.432;4.780;2023-11-21T14:22:40;2.13;;;1.85;;
44145;SDS011;29809;52.432;4.780;2023-11-21T14:25:06;2.30;;;2.10;;
44145;SDS011;29809;52.432;4.780;2023-11-21T14:27:31;2.20;;;2.00;;
44145;SDS011;29809;52.432;4.780;2023-11-21T14:29:58;1.80;;;1.70;;
44145;SDS011;29809;52.432;4.780;2023-11-21T14:32:24;3.08;;;2.28;;
44145;SDS011;29809;52.432;4.780;2023-11-21T14:34:50;1.95;;;1.77;;
44145;SDS011;29809;52.432;4.780;2023-11-21T14:37:16;2.38;;;1.95;;
44145;SDS011;29809;52.432;4.780;2023-11-21T14:39:41;3.67;;;2.00;;
44145;SDS011;29809;52.432;4.780;2023-11-21T14:42:10;2.42;;;1.85;;
44145;SDS011;29809;52.432;4.780;2023-11-21T14:44:35;1.70;;;1.60;;
44145;SDS011;29809;52.432;4.780;2023-11-21T14:47:05;2.03;;;1.70;;
44145;SDS011;29809;52.432;4.780;2023-11-21T14:49:39;1.52;;;1.42;;
44145;SDS011;29809;52.432;4.780;2023-11-21T14:52:17;1.65;;;1.55;;